sensor_id;sensor_type;location;lat;lon;timestamp;pressure;altitude;pressure_sealevel;temperature;humidity
75996;BME280;64681;49.738;9.004;2023-03-31T00:00:35;98777.47;;;11.00;74.28
75996;BME280;64681;49.738;9.004;2023-03-31T00:03:01;98773.00;;;10.88;74.29
75996;BME280;64681;49.738;9.004;2023-03-31T00:05:27;98772.81;;;10.81;74.75
75996;BME280;64681;49.738;9.004;2023-03-31T00:07:56;98769.47;;;10.52;75.93
75996;BME280;64681;49.738;9.004;2023-03-31T00:10:34;98761.50;;;10.39;77.00
75996;BME280;64681;49.738;9.004;2023-03-31T00:13:00;98757.88;;;10.32;76.72
75996;BME280;64681;49.738;9.004;2023-03-31T00:15:27;98747.38;;;10.23;77.13
75996;BME280;64681;49.738;9.004;2023-03-31T00:17:53;98744.69;;;10.23;76.84
75996;BME280;64681;49.738;9.004;2023-03-31T00:20:19;98737.09;;;10.09;77.75
75996;BME280;64681;49.738;9.004;2023-03-31T00:22:45;98737.28;;;10.16;76.88
75996;BME280;64681;49.738;9.004;2023-03-31T00:25:15;98730.31;;;10.27;76.79
75996;BME280;64681;49.738;9.004;2023-03-31T00:27:45;98721.91;;;10.25;76.85
75996;BME280;64681;49.738;9.004;2023-03-31T00:30:14;98716.81;;;10.36;76.51
75996;BME280;64681;49.738;9.004;2023-03-31T00:32:40;98716.16;;;10.39;76.55
75996;BME280;64681;49.738;9.004;2023-03-31T00:35:06;98714.25;;;10.40;76.58
75996;BME280;64681;49.738;9.004;2023-03-31T00:37:33;98707.72;;;10.53;75.97
75996;BME280;64681;49.738;9.004;2023-03-31T00:39:59;98708.47;;;10.54;75.93
75996;BME280;64681;49.738;9.004;2023-03-31T00:42:25;98704.59;;;10.35;76.59
75996;BME280;64681;49.738;9.004;2023-03-31T00:47:41;98692.38;;;10.34;76.67
75996;BME280;64681;49.738;9.004;2023-03-31T00:50:22;98694.50;;;10.28;77.08
75996;BME280;64681;49.738;9.004;2023-03-31T00:53:07;98692.22;;;10.43;76.44
75996;BME280;64681;49.738;9.004;2023-03-31T00:55:41;98676.56;;;10.57;75.68
75996;BME280;64681;49.738;9.004;2023-03-31T00:58:10;98672.91;;;10.66;75.95
75996;BME280;64681;49.738;9.004;2023-03-31T01:00:40;98669.56;;;10.37;77.33
75996;BME280;64681;49.738;9.004;2023-03-31T01:03:07;98660.09;;;10.55;76.07
75996;BME280;64681;49.738;9.004;2023-03-31T01:05:56;98656.19;;;10.69;75.96
75996;BME280;64681;49.738;9.004;2023-03-31T01:08:26;98657.63;;;10.82;75.53
75996;BME280;64681;49.738;9.004;2023-03-31T01:10:59;98650.56;;;10.90;74.63
75996;BME280;64681;49.738;9.004;2023-03-31T01:13:29;98647.81;;;10.86;74.44
75996;BME280;64681;49.738;9.004;2023-03-31T01:15:56;98637.88;;;10.87;74.63
75996;BME280;64681;49.738;9.004;2023-03-31T01:18:22;98641.34;;;10.87;74.79
75996;BME280;64681;49.738;9.004;2023-03-31T01:35:07;98621.69;;;10.60;76.19
75996;BME280;64681;49.738;9.004;2023-03-31T01:40:45;98608.56;;;10.71;75.98
75996;BME280;64681;49.738;9.004;2023-03-31T01:46:27;98593.53;;;10.63;75.74
75996;BME280;64681;49.738;9.004;2023-03-31T01:49:01;98592.78;;;11.01;74.80
75996;BME280;64681;49.738;9.004;2023-03-31T01:51:38;98582.31;;;11.32;73.28
75996;BME280;64681;49.738;9.004;2023-03-31T01:56:57;98579.25;;;11.53;72.83
75996;BME280;64681;49.738;9.004;2023-03-31T02:02:02;98577.78;;;11.36;73.21
75996;BME280;64681;49.738;9.004;2023-03-31T02:04:39;98569.56;;;11.45;72.82
75996;BME280;64681;49.738;9.004;2023-03-31T02:07:13;98572.22;;;11.45;72.13
75996;BME280;64681;49.738;9.004;2023-03-31T02:09:48;98558.03;;;11.64;71.30
75996;BME280;64681;49.738;9.004;2023-03-31T02:12:16;98562.66;;;11.44;72.60
75996;BME280;64681;49.738;9.004;2023-03-31T02:14:49;98554.94;;;11.19;72.72
75996;BME280;64681;49.738;9.004;2023-03-31T02:17:20;98547.75;;;11.23;72.72
75996;BME280;64681;49.738;9.004;2023-03-31T02:19:51;98546.94;;;11.19;73.38
75996;BME280;64681;49.738;9.004;2023-03-31T02:22:20;98541.94;;;11.17;73.51
75996;BME280;64681;49.738;9.004;2023-03-31T02:24:51;98538.22;;;11.22;73.37
75996;BME280;64681;49.738;9.004;2023-03-31T02:29:46;98529.66;;;11.36;72.96
75996;BME280;64681;49.738;9.004;2023-03-31T02:32:21;98526.59;;;11.57;71.52
75996;BME280;64681;49.738;9.004;2023-03-31T02:34:47;98518.50;;;11.77;70.22
75996;BME280;64681;49.738;9.004;2023-03-31T02:37:14;98515.16;;;11.83;70.08
75996;BME280;64681;49.738;9.004;2023-03-31T02:39:43;98507.69;;;11.69;71.06
75996;BME280;64681;49.738;9.004;2023-03-31T02:42:10;98504.72;;;11.51;71.94
75996;BME280;64681;49.738;9.004;2023-03-31T02:44:38;98507.09;;;11.80;69.65
75996;BME280;64681;49.738;9.004;2023-03-31T02:47:07;98498.84;;;11.65;70.52
75996;BME280;64681;49.738;9.004;2023-03-31T02:49:38;98498.00;;;11.84;69.61
75996;BME280;64681;49.738;9.004;2023-03-31T02:52:14;98501.44;;;11.85;71.12
75996;BME280;64681;49.738;9.004;2023-03-31T02:57:44;98496.81;;;11.59;75.22
75996;BME280;64681;49.738;9.004;2023-03-31T03:03:36;98487.13;;;11.50;75.50
75996;BME280;64681;49.738;9.004;2023-03-31T03:06:35;98479.22;;;11.11;78.22
75996;BME280;64681;49.738;9.004;2023-03-31T03:17:43;98454.03;;;10.89;79.35
75996;BME280;64681;49.738;9.004;2023-03-31T03:20:11;98445.84;;;11.01;79.83
75996;BME280;64681;49.738;9.004;2023-03-31T03:22:39;98431.78;;;11.04;78.75
75996;BME280;64681;49.738;9.004;2023-03-31T03:25:07;98419.75;;;10.71;80.43
75996;BME280;64681;49.738;9.004;2023-03-31T03:27:34;98406.44;;;10.52;80.84
75996;BME280;64681;49.738;9.004;2023-03-31T03:30:04;98407.25;;;10.36;81.46
75996;BME280;64681;49.738;9.004;2023-03-31T03:32:30;98406.72;;;10.47;81.40
75996;BME280;64681;49.738;9.004;2023-03-31T03:34:56;98391.81;;;10.65;80.20
75996;BME280;64681;49.738;9.004;2023-03-31T03:37:21;98399.25;;;10.99;78.72
75996;BME280;64681;49.738;9.004;2023-03-31T03:39:47;98397.22;;;10.92;78.91
75996;BME280;64681;49.738;9.004;2023-03-31T03:42:12;98385.25;;;11.05;79.57
75996;BME280;64681;49.738;9.004;2023-03-31T03:44:38;98390.66;;;11.09;78.75
75996;BME280;64681;49.738;9.004;2023-03-31T03:47:03;98378.66;;;11.22;78.83
75996;BME280;64681;49.738;9.004;2023-03-31T03:49:29;98365.81;;;11.08;78.71
75996;BME280;64681;49.738;9.004;2023-03-31T03:51:55;98367.16;;;11.45;78.12
75996;BME280;64681;49.738;9.004;2023-03-31T03:54:20;98360.16;;;11.37;77.97
75996;BME280;64681;49.738;9.004;2023-03-31T03:56:46;98351.72;;;11.08;79.36
75996;BME280;64681;49.738;9.004;2023-03-31T03:59:11;98353.16;;;11.02;79.43
75996;BME280;64681;49.738;9.004;2023-03-31T04:01:37;98350.19;;;11.34;78.63
75996;BME280;64681;49.738;9.004;2023-03-31T04:04:03;98348.84;;;11.20;78.93
75996;BME280;64681;49.738;9.004;2023-03-31T04:06:29;98345.56;;;11.31;78.35
75996;BME280;64681;49.738;9.004;2023-03-31T04:08:54;98334.03;;;11.00;79.70
75996;BME280;64681;49.738;9.004;2023-03-31T04:11:20;98310.56;;;10.89;79.60
75996;BME280;64681;49.738;9.004;2023-03-31T04:13:46;98303.13;;;10.75;79.70
75996;BME280;64681;49.738;9.004;2023-03-31T04:16:13;98310.06;;;10.80;79.50
75996;BME280;64681;49.738;9.004;2023-03-31T04:18:38;98319.09;;;10.72;79.45
75996;BME280;64681;49.738;9.004;2023-03-31T04:21:14;98307.75;;;10.55;80.41
75996;BME280;64681;49.738;9.004;2023-03-31T04:23:48;98316.56;;;10.59;79.78
75996;BME280;64681;49.738;9.004;2023-03-31T04:26:16;98321.34;;;10.70;79.23
75996;BME280;64681;49.738;9.004;2023-03-31T04:28:43;98306.56;;;10.76;79.09
75996;BME280;64681;49.738;9.004;2023-03-31T04:31:13;98294.53;;;10.63;79.55
75996;BME280;64681;49.738;9.004;2023-03-31T04:34:05;98289.84;;;10.79;79.53
75996;BME280;64681;49.738;9.004;2023-03-31T04:36:33;98278.59;;;10.93;78.73
75996;BME280;64681;49.738;9.004;2023-03-31T04:38:59;98273.13;;;10.86;78.92
75996;BME280;64681;49.738;9.004;2023-03-31T04:41:26;98278.53;;;10.89;79.03
75996;BME280;64681;49.738;9.004;2023-03-31T04:43:52;98270.22;;;10.95;79.55
75996;BME280;64681;49.738;9.004;2023-03-31T04:46:18;98260.25;;;10.65;80.59
75996;BME280;64681;49.738;9.004;2023-03-31T04:48:44;98250.53;;;10.80;80.11
75996;BME280;64681;49.738;9.004;2023-03-31T04:51:09;98244.66;;;10.93;79.46
75996;BME280;64681;49.738;9.004;2023-03-31T04:53:35;98236.38;;;10.75;79.49
75996;BME280;64681;49.738;9.004;2023-03-31T04:56:01;98237.94;;;10.76;79.87
75996;BME280;64681;49.738;9.004;2023-03-31T04:58:26;98229.59;;;10.82;79.81
75996;BME280;64681;49.738;9.004;2023-03-31T05:00:52;98245.84;;;10.73;79.60
75996;BME280;64681;49.738;9.004;2023-03-31T05:03:18;98245.28;;;10.60;79.49
75996;BME280;64681;49.738;9.004;2023-03-31T05:05:44;98247.66;;;10.65;79.39
75996;BME280;64681;49.738;9.004;2023-03-31T05:08:10;98243.91;;;10.97;78.02
75996;BME280;64681;49.738;9.004;2023-03-31T05:10:35;98240.34;;;10.85;78.47
75996;BME280;64681;49.738;9.004;2023-03-31T05:13:02;98245.66;;;10.85;78.60
75996;BME280;64681;49.738;9.004;2023-03-31T05:15:27;98237.91;;;11.03;78.02
75996;BME280;64681;49.738;9.004;2023-03-31T05:17:53;98242.25;;;10.61;79.83
75996;BME280;64681;49.738;9.004;2023-03-31T05:20:19;98236.91;;;10.61;79.27
75996;BME280;64681;49.738;9.004;2023-03-31T05:22:46;98230.59;;;10.04;81.48
75996;BME280;64681;49.738;9.004;2023-03-31T05:25:12;98238.63;;;10.27;82.01
75996;BME280;64681;49.738;9.004;2023-03-31T05:27:45;98227.50;;;10.44;80.52
75996;BME280;64681;49.738;9.004;2023-03-31T05:30:15;98233.78;;;10.56;79.81
75996;BME280;64681;49.738;9.004;2023-03-31T05:32:41;98235.44;;;10.64;80.18
75996;BME280;64681;49.738;9.004;2023-03-31T05:35:07;98224.94;;;10.52;81.15
75996;BME280;64681;49.738;9.004;2023-03-31T05:37:33;98222.34;;;10.36;80.98
75996;BME280;64681;49.738;9.004;2023-03-31T05:39:58;98222.31;;;10.32;80.65
75996;BME280;64681;49.738;9.004;2023-03-31T05:42:24;98229.88;;;10.50;81.02
75996;BME280;64681;49.738;9.004;2023-03-31T05:44:50;98221.38;;;10.44;80.75
75996;BME280;64681;49.738;9.004;2023-03-31T05:47:16;98214.91;;;10.45;80.65
75996;BME280;64681;49.738;9.004;2023-03-31T05:49:42;98217.81;;;10.59;80.76
75996;BME280;64681;49.738;9.004;2023-03-31T05:52:08;98211.28;;;10.57;79.78
75996;BME280;64681;49.738;9.004;2023-03-31T05:54:33;98209.25;;;10.73;79.89
75996;BME280;64681;49.738;9.004;2023-03-31T05:56:59;98182.47;;;10.43;80.39
75996;BME280;64681;49.738;9.004;2023-03-31T05:59:24;98201.75;;;10.56;80.08
75996;BME280;64681;49.738;9.004;2023-03-31T06:01:50;98187.00;;;10.66;80.07
75996;BME280;64681;49.738;9.004;2023-03-31T06:04:16;98173.94;;;10.57;80.29
75996;BME280;64681;49.738;9.004;2023-03-31T06:06:41;98167.75;;;10.80;80.02
75996;BME280;64681;49.738;9.004;2023-03-31T06:09:09;98170.38;;;10.49;80.91
75996;BME280;64681;49.738;9.004;2023-03-31T06:11:38;98156.59;;;10.24;81.70
75996;BME280;64681;49.738;9.004;2023-03-31T06:14:04;98138.63;;;10.67;79.65
75996;BME280;64681;49.738;9.004;2023-03-31T06:16:29;98138.16;;;10.61;80.00
75996;BME280;64681;49.738;9.004;2023-03-31T06:18:55;98135.94;;;10.67;80.18
75996;BME280;64681;49.738;9.004;2023-03-31T06:21:21;98130.41;;;10.53;80.34
75996;BME280;64681;49.738;9.004;2023-03-31T06:23:47;98118.38;;;10.66;80.44
75996;BME280;64681;49.738;9.004;2023-03-31T06:26:18;98116.59;;;10.47;80.43
75996;BME280;64681;49.738;9.004;2023-03-31T06:28:44;98114.41;;;10.53;80.66
75996;BME280;64681;49.738;9.004;2023-03-31T06:31:14;98120.72;;;10.41;81.55
75996;BME280;64681;49.738;9.004;2023-03-31T06:33:41;98114.88;;;10.35;81.09
75996;BME280;64681;49.738;9.004;2023-03-31T06:36:09;98089.38;;;10.38;80.52
75996;BME280;64681;49.738;9.004;2023-03-31T06:38:36;98078.16;;;10.28;81.07
75996;BME280;64681;49.738;9.004;2023-03-31T06:41:03;98061.59;;;10.39;81.58
75996;BME280;64681;49.738;9.004;2023-03-31T06:43:29;98049.72;;;10.36;80.60
75996;BME280;64681;49.738;9.004;2023-03-31T06:45:55;98040.91;;;10.36;82.10
75996;BME280;64681;49.738;9.004;2023-03-31T06:48:24;98028.91;;;10.45;81.34
75996;BME280;64681;49.738;9.004;2023-03-31T06:50:53;98030.06;;;10.21;81.19
75996;BME280;64681;49.738;9.004;2023-03-31T06:53:19;98016.94;;;10.66;80.28
75996;BME280;64681;49.738;9.004;2023-03-31T06:55:44;98001.38;;;10.41;80.70
75996;BME280;64681;49.738;9.004;2023-03-31T06:58:10;98010.22;;;10.80;80.60
75996;BME280;64681;49.738;9.004;2023-03-31T07:00:36;98013.28;;;11.16;78.73
75996;BME280;64681;49.738;9.004;2023-03-31T07:03:03;98017.63;;;11.31;77.66
75996;BME280;64681;49.738;9.004;2023-03-31T07:05:30;98019.06;;;11.21;78.65
75996;BME280;64681;49.738;9.004;2023-03-31T07:07:58;98008.94;;;11.04;78.52
75996;BME280;64681;49.738;9.004;2023-03-31T07:10:27;98000.72;;;10.82;79.34
75996;BME280;64681;49.738;9.004;2023-03-31T07:12:53;98009.97;;;10.92;79.81
75996;BME280;64681;49.738;9.004;2023-03-31T07:15:19;98000.53;;;10.98;79.28
75996;BME280;64681;49.738;9.004;2023-03-31T07:17:45;97993.78;;;10.77;80.69
75996;BME280;64681;49.738;9.004;2023-03-31T07:20:13;97998.50;;;10.88;79.92
75996;BME280;64681;49.738;9.004;2023-03-31T07:22:43;97991.41;;;11.03;79.76
75996;BME280;64681;49.738;9.004;2023-03-31T07:25:11;98000.19;;;11.03;78.39
75996;BME280;64681;49.738;9.004;2023-03-31T07:27:37;97999.63;;;10.87;79.51
75996;BME280;64681;49.738;9.004;2023-03-31T07:30:07;97994.63;;;10.82;79.63
75996;BME280;64681;49.738;9.004;2023-03-31T07:32:34;97992.16;;;10.69;81.28
75996;BME280;64681;49.738;9.004;2023-03-31T07:35:05;97985.13;;;10.54;82.08
75996;BME280;64681;49.738;9.004;2023-03-31T07:37:35;97995.47;;;10.28;83.31
75996;BME280;64681;49.738;9.004;2023-03-31T07:40:00;97990.88;;;10.56;81.30
75996;BME280;64681;49.738;9.004;2023-03-31T07:42:26;97981.75;;;10.57;81.67
75996;BME280;64681;49.738;9.004;2023-03-31T07:44:52;97970.13;;;10.76;81.19
75996;BME280;64681;49.738;9.004;2023-03-31T07:47:18;97971.53;;;11.00;81.41
75996;BME280;64681;49.738;9.004;2023-03-31T07:49:44;97978.78;;;11.41;78.77
75996;BME280;64681;49.738;9.004;2023-03-31T07:52:09;97994.66;;;11.71;77.69
75996;BME280;64681;49.738;9.004;2023-03-31T07:54:35;97995.28;;;11.54;78.52
75996;BME280;64681;49.738;9.004;2023-03-31T07:57:01;98009.47;;;11.58;78.41
75996;BME280;64681;49.738;9.004;2023-03-31T07:59:28;98004.09;;;11.54;78.71
75996;BME280;64681;49.738;9.004;2023-03-31T08:01:54;98015.72;;;11.77;78.39
75996;BME280;64681;49.738;9.004;2023-03-31T08:04:20;98010.97;;;11.55;79.29
75996;BME280;64681;49.738;9.004;2023-03-31T08:06:45;98057.66;;;11.65;79.54
75996;BME280;64681;49.738;9.004;2023-03-31T08:09:11;98044.78;;;11.37;80.43
75996;BME280;64681;49.738;9.004;2023-03-31T08:11:37;98038.81;;;11.51;80.91
75996;BME280;64681;49.738;9.004;2023-03-31T08:14:02;98065.31;;;11.26;81.29
75996;BME280;64681;49.738;9.004;2023-03-31T08:16:28;98066.28;;;10.80;82.52
75996;BME280;64681;49.738;9.004;2023-03-31T08:18:53;98000.06;;;10.58;78.02
75996;BME280;64681;49.738;9.004;2023-03-31T08:21:19;98002.59;;;10.48;79.43
75996;BME280;64681;49.738;9.004;2023-03-31T08:23:45;98019.75;;;10.20;79.94
75996;BME280;64681;49.738;9.004;2023-03-31T08:26:15;97972.38;;;9.59;82.15
75996;BME280;64681;49.738;9.004;2023-03-31T08:28:46;97993.72;;;9.59;82.80
75996;BME280;64681;49.738;9.004;2023-03-31T08:31:17;98006.13;;;9.75;83.08
75996;BME280;64681;49.738;9.004;2023-03-31T08:33:44;98020.66;;;10.04;82.19
75996;BME280;64681;49.738;9.004;2023-03-31T08:36:10;98022.13;;;9.75;83.52
75996;BME280;64681;49.738;9.004;2023-03-31T08:38:37;98012.91;;;10.22;81.57
75996;BME280;64681;49.738;9.004;2023-03-31T08:41:16;97997.91;;;9.84;81.44
75996;BME280;64681;49.738;9.004;2023-03-31T08:43:49;98017.09;;;9.70;82.59
75996;BME280;64681;49.738;9.004;2023-03-31T08:46:17;98036.03;;;9.88;83.06
75996;BME280;64681;49.738;9.004;2023-03-31T08:48:48;98029.25;;;10.17;82.40
75996;BME280;64681;49.738;9.004;2023-03-31T08:51:58;98019.97;;;10.07;84.14
75996;BME280;64681;49.738;9.004;2023-03-31T08:54:39;98030.03;;;10.44;83.09
75996;BME280;64681;49.738;9.004;2023-03-31T08:57:16;98044.81;;;10.69;81.33
75996;BME280;64681;49.738;9.004;2023-03-31T08:59:44;98037.00;;;10.53;82.22
75996;BME280;64681;49.738;9.004;2023-03-31T09:02:28;98036.66;;;10.58;82.73
75996;BME280;64681;49.738;9.004;2023-03-31T09:07:57;98019.84;;;10.27;84.48
75996;BME280;64681;49.738;9.004;2023-03-31T09:16:41;97986.03;;;11.40;82.47
75996;BME280;64681;49.738;9.004;2023-03-31T09:19:17;97981.28;;;12.24;81.63
75996;BME280;64681;49.738;9.004;2023-03-31T09:21:50;97996.00;;;12.70;79.05
75996;BME280;64681;49.738;9.004;2023-03-31T09:24:22;97991.88;;;12.97;78.85
75996;BME280;64681;49.738;9.004;2023-03-31T09:27:20;97991.31;;;12.45;78.43
75996;BME280;64681;49.738;9.004;2023-03-31T09:34:46;98011.66;;;12.60;78.48
75996;BME280;64681;49.738;9.004;2023-03-31T09:37:14;98009.91;;;13.22;76.75
75996;BME280;64681;49.738;9.004;2023-03-31T09:39:40;97993.81;;;13.19;76.94
75996;BME280;64681;49.738;9.004;2023-03-31T09:42:10;97999.97;;;13.26;76.47
75996;BME280;64681;49.738;9.004;2023-03-31T09:44:39;97988.53;;;13.51;76.51
75996;BME280;64681;49.738;9.004;2023-03-31T09:47:14;98003.78;;;13.22;75.74
75996;BME280;64681;49.738;9.004;2023-03-31T09:49:45;97996.88;;;13.10;75.74
75996;BME280;64681;49.738;9.004;2023-03-31T09:52:27;97990.31;;;12.78;75.26
75996;BME280;64681;49.738;9.004;2023-03-31T09:54:57;98006.72;;;11.99;75.96
75996;BME280;64681;49.738;9.004;2023-03-31T09:57:35;98020.28;;;11.31;75.51
75996;BME280;64681;49.738;9.004;2023-03-31T10:00:22;98035.34;;;10.75;79.24
75996;BME280;64681;49.738;9.004;2023-03-31T10:02:49;98050.63;;;10.21;78.83
75996;BME280;64681;49.738;9.004;2023-03-31T10:05:31;98047.59;;;10.22;78.55
75996;BME280;64681;49.738;9.004;2023-03-31T10:10:48;98031.59;;;9.26;80.84
75996;BME280;64681;49.738;9.004;2023-03-31T10:13:18;98053.19;;;9.21;80.46
75996;BME280;64681;49.738;9.004;2023-03-31T10:15:45;98005.66;;;8.80;81.66
75996;BME280;64681;49.738;9.004;2023-03-31T10:18:16;98002.34;;;8.86;81.81
75996;BME280;64681;49.738;9.004;2023-03-31T10:20:51;97997.50;;;9.12;82.24
75996;BME280;64681;49.738;9.004;2023-03-31T10:23:29;97960.03;;;9.47;79.45
75996;BME280;64681;49.738;9.004;2023-03-31T10:25:57;97946.56;;;9.63;79.53
75996;BME280;64681;49.738;9.004;2023-03-31T10:28:24;97947.16;;;9.76;79.24
75996;BME280;64681;49.738;9.004;2023-03-31T10:30:55;97974.41;;;10.20;79.17
75996;BME280;64681;49.738;9.004;2023-03-31T10:33:27;97951.31;;;10.35;78.61
75996;BME280;64681;49.738;9.004;2023-03-31T10:36:07;97939.88;;;11.02;76.74
75996;BME280;64681;49.738;9.004;2023-03-31T10:38:43;97922.69;;;11.45;74.25
75996;BME280;64681;49.738;9.004;2023-03-31T10:41:11;97925.63;;;11.32;73.77
75996;BME280;64681;49.738;9.004;2023-03-31T10:43:48;97919.84;;;11.79;74.17
75996;BME280;64681;49.738;9.004;2023-03-31T10:46:14;97913.91;;;12.07;72.55
75996;BME280;64681;49.738;9.004;2023-03-31T10:48:41;97906.75;;;12.26;71.03
75996;BME280;64681;49.738;9.004;2023-03-31T10:51:16;97918.00;;;12.96;70.34
75996;BME280;64681;49.738;9.004;2023-03-31T10:53:50;97913.72;;;12.59;70.52
75996;BME280;64681;49.738;9.004;2023-03-31T11:10:45;97919.81;;;14.08;66.67
75996;BME280;64681;49.738;9.004;2023-03-31T11:13:22;97901.88;;;13.94;66.01
75996;BME280;64681;49.738;9.004;2023-03-31T11:24:29;97919.16;;;13.57;69.87
75996;BME280;64681;49.738;9.004;2023-03-31T11:29:39;97930.63;;;13.83;67.46
75996;BME280;64681;49.738;9.004;2023-03-31T11:32:38;97912.88;;;14.29;66.82
75996;BME280;64681;49.738;9.004;2023-03-31T11:46:26;97905.75;;;13.24;66.73
75996;BME280;64681;49.738;9.004;2023-03-31T11:49:05;97906.91;;;13.41;68.99
75996;BME280;64681;49.738;9.004;2023-03-31T11:54:23;97907.25;;;13.80;65.95
75996;BME280;64681;49.738;9.004;2023-03-31T11:56:53;97887.72;;;13.72;65.74
75996;BME280;64681;49.738;9.004;2023-03-31T11:59:21;97886.22;;;13.35;67.54
75996;BME280;64681;49.738;9.004;2023-03-31T12:02:17;97882.03;;;13.41;66.57
75996;BME280;64681;49.738;9.004;2023-03-31T12:04:55;97890.47;;;13.14;67.43
75996;BME280;64681;49.738;9.004;2023-03-31T12:07:28;97898.50;;;13.28;67.15
75996;BME280;64681;49.738;9.004;2023-03-31T12:12:54;97899.56;;;13.89;66.64
75996;BME280;64681;49.738;9.004;2023-03-31T12:15:38;97875.31;;;14.14;66.86
75996;BME280;64681;49.738;9.004;2023-03-31T12:18:14;97867.53;;;14.41;66.70
75996;BME280;64681;49.738;9.004;2023-03-31T12:20:53;97864.88;;;14.34;65.83
75996;BME280;64681;49.738;9.004;2023-03-31T12:23:26;97849.38;;;14.60;65.12
75996;BME280;64681;49.738;9.004;2023-03-31T12:26:05;97838.72;;;14.49;65.69
75996;BME280;64681;49.738;9.004;2023-03-31T12:28:36;97828.16;;;14.80;65.48
75996;BME280;64681;49.738;9.004;2023-03-31T12:31:06;97837.72;;;14.25;65.24
75996;BME280;64681;49.738;9.004;2023-03-31T12:33:46;97838.25;;;14.58;65.51
75996;BME280;64681;49.738;9.004;2023-03-31T12:36:31;97829.34;;;15.21;65.19
75996;BME280;64681;49.738;9.004;2023-03-31T12:44:56;97820.06;;;15.29;62.69
75996;BME280;64681;49.738;9.004;2023-03-31T12:50:31;97825.75;;;14.97;65.40
75996;BME280;64681;49.738;9.004;2023-03-31T12:54:06;97826.50;;;14.37;65.83
75996;BME280;64681;49.738;9.004;2023-03-31T12:55:58;97827.28;;;14.98;63.16
75996;BME280;64681;49.738;9.004;2023-03-31T13:03:43;97819.97;;;14.38;65.36
75996;BME280;64681;49.738;9.004;2023-03-31T13:11:40;97826.59;;;14.83;62.28
75996;BME280;64681;49.738;9.004;2023-03-31T13:14:21;97824.69;;;14.83;59.80
75996;BME280;64681;49.738;9.004;2023-03-31T13:16:49;97825.19;;;14.67;59.75
75996;BME280;64681;49.738;9.004;2023-03-31T13:19:34;97800.34;;;15.01;59.47
75996;BME280;64681;49.738;9.004;2023-03-31T13:22:02;97819.34;;;14.76;58.61
75996;BME280;64681;49.738;9.004;2023-03-31T13:24:30;97805.13;;;14.79;59.15
75996;BME280;64681;49.738;9.004;2023-03-31T13:27:02;97808.81;;;15.00;60.35
75996;BME280;64681;49.738;9.004;2023-03-31T13:29:44;97801.97;;;15.33;57.11
75996;BME280;64681;49.738;9.004;2023-03-31T13:35:04;97780.94;;;15.59;58.21
75996;BME280;64681;49.738;9.004;2023-03-31T13:43:54;97776.63;;;14.93;57.97
75996;BME280;64681;49.738;9.004;2023-03-31T13:46:41;97773.03;;;14.57;58.18
75996;BME280;64681;49.738;9.004;2023-03-31T13:52:09;97798.63;;;15.22;56.75
75996;BME280;64681;49.738;9.004;2023-03-31T14:05:34;97832.75;;;14.80;59.42
75996;BME280;64681;49.738;9.004;2023-03-31T14:08:13;97853.84;;;14.14;66.46
75996;BME280;64681;49.738;9.004;2023-03-31T14:10:43;97835.06;;;14.14;66.01
75996;BME280;64681;49.738;9.004;2023-03-31T14:13:10;97826.06;;;14.46;66.65
75996;BME280;64681;49.738;9.004;2023-03-31T14:15:56;97824.84;;;14.54;65.62
75996;BME280;64681;49.738;9.004;2023-03-31T14:18:30;97815.34;;;14.99;64.15
75996;BME280;64681;49.738;9.004;2023-03-31T14:32:16;97791.78;;;14.05;60.80
75996;BME280;64681;49.738;9.004;2023-03-31T14:37:29;97798.56;;;14.28;61.28
75996;BME280;64681;49.738;9.004;2023-03-31T14:39:57;97791.06;;;13.93;62.30
75996;BME280;64681;49.738;9.004;2023-03-31T14:44:56;97785.28;;;14.66;61.33
75996;BME280;64681;49.738;9.004;2023-03-31T14:47:24;97778.25;;;14.83;62.80
75996;BME280;64681;49.738;9.004;2023-03-31T14:49:59;97762.88;;;14.27;61.80
75996;BME280;64681;49.738;9.004;2023-03-31T14:52:29;97761.94;;;14.55;61.99
75996;BME280;64681;49.738;9.004;2023-03-31T14:54:55;97760.25;;;15.18;60.93
75996;BME280;64681;49.738;9.004;2023-03-31T14:57:37;97745.34;;;15.13;60.98
75996;BME280;64681;49.738;9.004;2023-03-31T15:00:12;97754.88;;;14.76;60.99
75996;BME280;64681;49.738;9.004;2023-03-31T15:02:42;97738.97;;;14.47;61.80
75996;BME280;64681;49.738;9.004;2023-03-31T15:05:22;97742.84;;;14.92;60.75
75996;BME280;64681;49.738;9.004;2023-03-31T15:07:49;97742.34;;;14.59;59.34
75996;BME280;64681;49.738;9.004;2023-03-31T15:10:20;97740.91;;;14.47;59.93
75996;BME280;64681;49.738;9.004;2023-03-31T15:12:48;97710.38;;;14.22;57.22
75996;BME280;64681;49.738;9.004;2023-03-31T15:15:17;97737.66;;;14.14;58.29
75996;BME280;64681;49.738;9.004;2023-03-31T15:17:45;97737.94;;;14.30;58.12
75996;BME280;64681;49.738;9.004;2023-03-31T15:20:41;97755.97;;;14.26;58.72
75996;BME280;64681;49.738;9.004;2023-03-31T15:23:27;97753.31;;;14.22;55.59
75996;BME280;64681;49.738;9.004;2023-03-31T15:25:57;97785.28;;;13.99;57.86
75996;BME280;64681;49.738;9.004;2023-03-31T15:28:28;97795.69;;;13.89;58.14
75996;BME280;64681;49.738;9.004;2023-03-31T15:30:58;97827.50;;;13.91;60.14
75996;BME280;64681;49.738;9.004;2023-03-31T15:33:32;97870.88;;;13.64;65.68
75996;BME280;64681;49.738;9.004;2023-03-31T15:36:01;97884.72;;;13.05;70.50
75996;BME280;64681;49.738;9.004;2023-03-31T15:38:28;97887.66;;;12.34;71.83
75996;BME280;64681;49.738;9.004;2023-03-31T15:40:58;97855.56;;;11.61;74.14
75996;BME280;64681;49.738;9.004;2023-03-31T15:43:31;97824.16;;;10.87;77.10
75996;BME280;64681;49.738;9.004;2023-03-31T15:46:01;97797.53;;;10.50;78.83
75996;BME280;64681;49.738;9.004;2023-03-31T15:48:32;97771.72;;;9.89;78.88
75996;BME280;64681;49.738;9.004;2023-03-31T15:51:00;97778.81;;;10.46;78.37
75996;BME280;64681;49.738;9.004;2023-03-31T15:53:35;97796.69;;;10.42;78.66
75996;BME280;64681;49.738;9.004;2023-03-31T15:56:03;97798.78;;;10.25;80.37
75996;BME280;64681;49.738;9.004;2023-03-31T15:58:56;97794.38;;;10.82;79.26
75996;BME280;64681;49.738;9.004;2023-03-31T16:01:26;97795.03;;;11.23;79.16